createdAt,value
2022-08-21T00:01:23.263Z,62.63
2022-08-21T00:03:53.272Z,63.24
2022-08-21T00:06:23.474Z,63.14
2022-08-21T00:08:54.621Z,63.09
2022-08-21T00:11:25.550Z,62.36
2022-08-21T00:13:56.613Z,62.29
2022-08-21T00:16:27.075Z,62.64
2022-08-21T00:18:57.626Z,62.90
2022-08-21T00:21:27.881Z,62.88
2022-08-21T00:23:58.025Z,63.05
2022-08-21T00:26:28.733Z,62.69
2022-08-21T00:28:59.306Z,63.22
2022-08-21T00:31:31.463Z,62.19
2022-08-21T00:34:02.007Z,62.74
2022-08-21T00:36:32.208Z,62.53
2022-08-21T00:39:02.257Z,62.53
2022-08-21T00:41:37.512Z,63.37
2022-08-21T00:44:14.235Z,62.89
2022-08-21T00:46:45.859Z,63.02
2022-08-21T00:49:16.770Z,62.88
2022-08-21T00:51:58.104Z,62.98
2022-08-21T00:54:32.642Z,62.75
2022-08-21T00:57:07.419Z,62.93
2022-08-21T00:59:41.269Z,63.05
2022-08-21T01:02:12.610Z,63.26
2022-08-21T01:04:43.521Z,63.30
2022-08-21T01:07:14.908Z,62.95
2022-08-21T01:09:46.048Z,62.83
2022-08-21T01:12:17.096Z,62.67
2022-08-21T01:14:48.092Z,62.47
2022-08-21T01:17:20.035Z,62.54
2022-08-21T01:19:50.661Z,62.39
2022-08-21T01:22:21.707Z,62.44
2022-08-21T01:24:52.428Z,62.27
2022-08-21T01:27:23.332Z,62.30
2022-08-21T01:30:24.964Z,61.72
2022-08-21T01:32:56.936Z,62.21
2022-08-21T01:35:27.019Z,62.29
2022-08-21T01:37:57.028Z,62.10
2022-08-21T01:40:27.079Z,62.14
2022-08-21T01:42:57.510Z,61.63
2022-08-21T01:45:27.624Z,62.12
2022-08-21T01:47:57.680Z,61.76
2022-08-21T01:50:27.712Z,61.32
2022-08-21T01:52:57.833Z,60.81
2022-08-21T01:55:28.166Z,61.32
2022-08-21T01:57:58.129Z,61.52
2022-08-21T02:00:28.483Z,61.08
2022-08-21T02:02:58.792Z,61.45
2022-08-21T02:05:29.076Z,61.79
2022-08-21T02:08:00.795Z,61.51
2022-08-21T02:10:34.669Z,61.12
2022-08-21T02:13:05.995Z,60.74
2022-08-21T02:15:36.837Z,62.06
2022-08-21T02:18:09.152Z,61.01
2022-08-21T02:20:44.219Z,61.75
2022-08-21T02:23:15.261Z,61.23
2022-08-21T02:25:45.925Z,61.87
2022-08-21T02:28:18.357Z,61.10
2022-08-21T02:30:50.138Z,61.38
2022-08-21T02:33:21.776Z,61.36
2022-08-21T02:35:54.264Z,59.81
2022-08-21T02:38:28.395Z,60.36
2022-08-21T02:41:00.001Z,59.26
2022-08-21T02:43:31.184Z,60.38
2022-08-21T02:46:02.194Z,59.77
2022-08-21T02:48:34.081Z,60.95
2022-08-21T02:51:08.799Z,60.58
2022-08-21T02:53:40.373Z,60.61
2022-08-21T02:56:14.440Z,60.40
2022-08-21T02:58:51.134Z,60.73
2022-08-21T03:01:22.543Z,60.67
2022-08-21T03:03:53.074Z,60.05
2022-08-21T03:06:26.874Z,60.74
2022-08-21T03:08:57.094Z,60.13
2022-08-21T03:11:28.950Z,60.12
2022-08-21T03:13:59.618Z,60.49
2022-08-21T03:16:43.910Z,59.74
2022-08-21T03:19:14.761Z,59.93
2022-08-21T03:21:44.774Z,59.66
2022-08-21T03:24:14.759Z,59.44
2022-08-21T03:26:48.175Z,59.60
2022-08-21T03:29:18.422Z,60.28
2022-08-21T03:31:48.465Z,59.50
2022-08-21T03:34:20.340Z,59.16
2022-08-21T03:36:51.788Z,59.28
2022-08-21T03:39:22.176Z,59.33
2022-08-21T03:41:52.664Z,58.92
2022-08-21T03:44:22.681Z,57.96
2022-08-21T03:46:52.592Z,58.27
2022-08-21T03:49:22.890Z,58.59
2022-08-21T03:52:04.595Z,60.05
2022-08-21T03:54:36.038Z,58.59
2022-08-21T03:57:07.357Z,59.73
2022-08-21T03:59:38.610Z,60.18
2022-08-21T04:02:10.018Z,59.73
2022-08-21T04:04:40.703Z,59.99
2022-08-21T04:07:10.832Z,59.41
2022-08-21T04:09:41.021Z,60.11
2022-08-21T04:12:11.567Z,59.71
2022-08-21T04:14:41.659Z,59.23
2022-08-21T04:17:11.637Z,59.66
2022-08-21T04:19:41.600Z,60.45
2022-08-21T04:22:11.566Z,59.68
2022-08-21T04:24:41.582Z,59.99
2022-08-21T04:27:11.533Z,59.23
2022-08-21T04:29:41.482Z,59.31
2022-08-21T04:32:11.819Z,60.16
2022-08-21T04:34:41.771Z,59.50
2022-08-21T04:37:11.702Z,59.48
2022-08-21T04:39:41.649Z,59.57
2022-08-21T04:42:11.791Z,57.65
2022-08-21T04:44:41.807Z,58.92
2022-08-21T04:47:11.756Z,58.32
2022-08-21T04:49:41.774Z,59.17
2022-08-21T04:52:12.119Z,59.74
2022-08-21T04:54:42.786Z,59.34
2022-08-21T04:57:13.450Z,59.60
2022-08-21T04:59:51.490Z,58.40
2022-08-21T05:02:25.011Z,59.15
2022-08-21T05:04:57.547Z,59.41
2022-08-21T05:07:41.892Z,59.22
2022-08-21T05:10:16.194Z,58.92
2022-08-21T05:12:47.611Z,58.33
2022-08-21T05:15:19.557Z,58.90
2022-08-21T05:17:52.327Z,58.39
2022-08-21T05:20:24.335Z,58.36
2022-08-21T05:22:58.503Z,57.77
2022-08-21T05:25:30.844Z,58.61
2022-08-21T05:28:01.182Z,58.33
2022-08-21T05:30:32.325Z,58.22
2022-08-21T05:33:08.421Z,58.08
2022-08-21T05:35:40.777Z,57.18
2022-08-21T05:38:16.512Z,57.26
2022-08-21T05:40:57.798Z,58.05
2022-08-21T05:43:28.787Z,58.05
2022-08-21T05:45:58.867Z,58.48
2022-08-21T05:48:28.781Z,57.47
2022-08-21T05:50:59.559Z,58.09
2022-08-21T05:53:32.166Z,58.46
2022-08-21T05:56:05.735Z,58.27
2022-08-21T05:58:37.395Z,58.64
2022-08-21T06:01:08.949Z,58.43
2022-08-21T06:03:43.370Z,58.81
2022-08-21T06:06:13.595Z,58.12
2022-08-21T06:08:44.740Z,58.35
2022-08-21T06:11:15.804Z,57.87
2022-08-21T06:13:49.772Z,57.82
2022-08-21T06:16:20.674Z,58.19
2022-08-21T06:18:51.749Z,58.58
2022-08-21T06:21:22.733Z,58.67
2022-08-21T06:23:53.196Z,57.92
2022-08-21T06:26:24.629Z,58.00
2022-08-21T06:28:56.037Z,58.27
2022-08-21T06:31:29.840Z,58.07
2022-08-21T06:34:00.248Z,58.62
2022-08-21T06:36:30.386Z,57.83
2022-08-21T06:39:00.328Z,58.05
2022-08-21T06:41:32.089Z,58.03
2022-08-21T06:44:20.652Z,58.58
2022-08-21T06:47:00.779Z,57.96
2022-08-21T06:49:39.962Z,57.00
2022-08-21T06:52:15.180Z,58.65
2022-08-21T06:54:54.498Z,57.26
2022-08-21T06:57:25.076Z,58.03
2022-08-21T06:59:55.266Z,57.94
2022-08-21T07:02:25.237Z,57.62
2022-08-21T07:04:55.279Z,57.50
2022-08-21T07:07:24.685Z,57.63
2022-08-21T07:09:54.613Z,57.16
2022-08-21T07:12:24.574Z,57.26
2022-08-21T07:14:54.500Z,57.42
2022-08-21T07:17:24.638Z,57.98
2022-08-21T07:19:54.729Z,57.28
2022-08-21T07:22:25.806Z,57.55
2022-08-21T07:24:56.714Z,57.34
2022-08-21T07:27:27.369Z,57.01
2022-08-21T07:29:57.116Z,57.28
2022-08-21T07:32:27.704Z,57.88
2022-08-21T07:34:57.837Z,55.88
2022-08-21T07:37:28.021Z,56.39
2022-08-21T07:39:58.904Z,57.10
2022-08-21T07:42:29.256Z,56.97
2022-08-21T07:45:01.961Z,56.51
2022-08-21T07:47:42.800Z,57.28
2022-08-21T07:50:16.036Z,56.92
2022-08-21T07:52:47.346Z,57.17
2022-08-21T07:55:22.196Z,56.78
2022-08-21T07:57:52.877Z,56.70
2022-08-21T08:00:26.865Z,57.17
2022-08-21T08:02:58.502Z,56.55
2022-08-21T08:05:32.431Z,57.27
2022-08-21T08:08:02.859Z,57.55
2022-08-21T08:10:33.673Z,58.23
2022-08-21T08:13:04.682Z,57.95
2022-08-21T08:15:37.600Z,57.32
2022-08-21T08:18:08.719Z,57.97
2022-08-21T08:20:39.052Z,57.78
2022-08-21T08:23:09.845Z,57.61
2022-08-21T08:25:40.229Z,57.94
2022-08-21T08:28:16.975Z,57.14
2022-08-21T08:30:49.069Z,57.70
2022-08-21T08:33:22.839Z,58.15
2022-08-21T08:35:54.465Z,58.47
2022-08-21T08:38:27.185Z,58.46
2022-08-21T08:41:13.132Z,58.55
2022-08-21T08:43:47.977Z,58.48
2022-08-21T08:46:21.894Z,58.62
2022-08-21T08:49:02.209Z,59.38
2022-08-21T08:51:39.785Z,58.94
2022-08-21T08:54:16.767Z,58.87
2022-08-21T08:56:48.297Z,58.84
2022-08-21T08:59:23.476Z,59.81
2022-08-21T09:01:54.240Z,58.89
2022-08-21T09:04:31.173Z,59.37
2022-08-21T09:07:28.530Z,59.31
2022-08-21T09:10:17.667Z,58.91
2022-08-21T09:13:22.610Z,59.21
2022-08-21T09:16:25.608Z,59.18
2022-08-21T09:19:08.014Z,59.17
2022-08-21T09:21:43.985Z,59.30
2022-08-21T09:24:50.040Z,59.02
2022-08-21T09:27:24.456Z,59.20
2022-08-21T09:29:59.890Z,59.55
2022-08-21T09:32:37.847Z,59.62
2022-08-21T09:35:21.995Z,59.45
2022-08-21T09:37:58.107Z,59.73
2022-08-21T09:40:48.094Z,59.10
2022-08-21T09:43:22.203Z,59.45
2022-08-21T09:46:22.221Z,59.42
2022-08-21T09:49:57.934Z,59.43
2022-08-21T09:52:33.914Z,59.83
2022-08-21T09:55:26.537Z,60.22
2022-08-21T09:57:57.167Z,60.01
2022-08-21T10:00:33.198Z,59.48
2022-08-21T10:03:16.029Z,60.14
2022-08-21T10:05:58.491Z,59.77
2022-08-21T10:08:31.863Z,59.94
2022-08-21T10:11:26.979Z,59.98
2022-08-21T10:14:05.056Z,60.62
2022-08-21T10:16:37.899Z,61.34
2022-08-21T10:19:11.070Z,61.37
2022-08-21T10:22:12.076Z,60.76
2022-08-21T10:25:14.164Z,62.17
2022-08-21T10:28:15.880Z,61.33
2022-08-21T10:31:19.506Z,61.17
2022-08-21T10:34:12.453Z,61.56
2022-08-21T10:36:46.823Z,63.42
2022-08-21T10:39:35.873Z,62.02
2022-08-21T10:42:11.356Z,63.28
2022-08-21T10:44:53.789Z,63.06
2022-08-21T10:47:35.906Z,62.61
2022-08-21T10:50:15.025Z,62.97
2022-08-21T10:53:03.193Z,63.24
2022-08-21T10:55:46.722Z,63.50
2022-08-21T10:58:34.198Z,63.84
2022-08-21T11:01:23.504Z,62.90
2022-08-21T11:04:18.853Z,63.17
2022-08-21T11:07:01.821Z,63.76
2022-08-21T11:09:34.909Z,64.33
2022-08-21T11:12:16.132Z,64.30
2022-08-21T11:14:58.281Z,64.73
2022-08-21T11:17:39.748Z,63.79
2022-08-21T11:20:24.541Z,63.87
2022-08-21T11:23:25.647Z,64.13
2022-08-21T11:26:04.831Z,65.22
2022-08-21T11:28:44.020Z,65.04
2022-08-21T11:32:05.455Z,64.36
2022-08-21T11:35:05.621Z,64.72
2022-08-21T11:38:05.780Z,65.18
2022-08-21T11:40:41.914Z,67.20
2022-08-21T11:43:33.521Z,64.84
2022-08-21T11:46:20.802Z,65.71
2022-08-21T11:49:03.254Z,67.61
2022-08-21T11:51:50.492Z,66.34
2022-08-21T11:54:31.801Z,67.46
2022-08-21T11:57:12.839Z,67.01
2022-08-21T11:59:50.279Z,67.49
2022-08-21T12:02:26.069Z,67.32
2022-08-21T12:05:08.169Z,68.34
2022-08-21T12:07:42.934Z,68.02
2022-08-21T12:10:25.256Z,66.89
2022-08-21T12:12:55.565Z,69.00
2022-08-21T12:15:25.463Z,69.38
2022-08-21T12:18:05.638Z,68.20
2022-08-21T12:21:15.269Z,69.58
2022-08-21T12:24:24.274Z,67.48
2022-08-21T12:27:30.777Z,67.21
2022-08-21T12:30:09.302Z,68.09
2022-08-21T12:32:45.390Z,68.71
2022-08-21T12:35:40.920Z,68.33
2022-08-21T12:38:35.523Z,68.72
2022-08-21T12:41:21.062Z,69.33
2022-08-21T12:44:07.401Z,69.46
2022-08-21T12:46:47.639Z,68.82
2022-08-21T12:49:29.414Z,69.48
2022-08-21T12:52:04.989Z,69.12
2022-08-21T12:54:43.453Z,69.87
2022-08-21T12:57:24.313Z,69.17
2022-08-21T13:00:01.415Z,69.83
2022-08-21T13:02:39.735Z,69.76
2022-08-21T13:05:15.452Z,70.38
2022-08-21T13:07:51.571Z,69.07
2022-08-21T13:10:32.742Z,68.74
2022-08-21T13:13:25.822Z,68.93
2022-08-21T13:16:06.057Z,69.66
2022-08-21T13:18:54.405Z,70.05
2022-08-21T13:21:35.196Z,70.40
2022-08-21T13:24:43.375Z,69.48
2022-08-21T13:27:30.981Z,71.78
2022-08-21T13:30:12.622Z,69.85
2022-08-21T13:32:49.196Z,71.13
2022-08-21T13:35:25.616Z,71.19
2022-08-21T13:37:58.745Z,71.61
2022-08-21T13:40:42.559Z,71.45
2022-08-21T13:43:26.596Z,70.60
2022-08-21T13:45:58.814Z,72.42
2022-08-21T13:48:37.151Z,70.56
2022-08-21T13:51:08.921Z,72.28
2022-08-21T13:53:39.042Z,69.58
2022-08-21T13:56:10.064Z,71.64
2022-08-21T13:58:51.140Z,70.55
2022-08-21T14:01:38.928Z,70.19
2022-08-21T14:04:51.064Z,70.39
2022-08-21T14:07:47.041Z,71.23
2022-08-21T14:10:25.961Z,71.81
2022-08-21T14:13:04.752Z,72.06
2022-08-21T14:15:38.531Z,72.16
2022-08-21T14:18:28.825Z,70.46
2022-08-21T14:21:12.095Z,71.75
2022-08-21T14:23:47.268Z,73.25
2022-08-21T14:26:23.032Z,72.82
2022-08-21T14:28:54.547Z,72.96
2022-08-21T14:31:35.778Z,72.25
2022-08-21T14:34:19.584Z,73.34
2022-08-21T14:36:52.070Z,73.22
2022-08-21T14:39:23.495Z,73.62
2022-08-21T14:41:59.884Z,73.84
2022-08-21T14:44:30.196Z,71.11
2022-08-21T14:47:04.491Z,73.17
2022-08-21T14:49:39.118Z,73.45
2022-08-21T14:52:09.677Z,73.91
2022-08-21T14:54:41.123Z,73.73
2022-08-21T14:57:14.717Z,73.45
2022-08-21T14:59:45.965Z,73.54
2022-08-21T15:02:16.387Z,73.71
2022-08-21T15:04:47.230Z,73.55
2022-08-21T15:07:17.838Z,74.24
2022-08-21T15:09:51.260Z,74.18
2022-08-21T15:12:22.492Z,74.21
2022-08-21T15:14:53.512Z,73.81
2022-08-21T15:17:25.187Z,74.08
2022-08-21T15:19:55.946Z,73.64
2022-08-21T15:22:29.695Z,74.30
2022-08-21T15:25:00.409Z,73.46
2022-08-21T15:27:33.875Z,73.94
2022-08-21T15:30:08.210Z,73.88
2022-08-21T15:32:40.359Z,74.18
2022-08-21T15:35:12.008Z,74.31
2022-08-21T15:37:44.297Z,73.89
2022-08-21T15:40:16.653Z,73.45
2022-08-21T15:42:48.996Z,73.82
2022-08-21T15:45:19.745Z,74.11
2022-08-21T15:47:53.323Z,74.16
2022-08-21T15:50:24.535Z,74.17
2022-08-21T15:52:56.450Z,73.98
2022-08-21T15:55:28.316Z,73.75
2022-08-21T15:58:05.708Z,73.63
2022-08-21T16:00:40.716Z,74.25
2022-08-21T16:03:16.503Z,74.14
2022-08-21T16:05:51.824Z,74.61
2022-08-21T16:08:23.952Z,73.88
2022-08-21T16:10:57.837Z,74.38
2022-08-21T16:13:33.397Z,73.85
2022-08-21T16:16:04.231Z,74.11
2022-08-21T16:18:35.543Z,75.11
2022-08-21T16:21:06.585Z,74.77
2022-08-21T16:23:39.913Z,74.80
2022-08-21T16:26:14.165Z,74.14
2022-08-21T16:28:50.995Z,74.15
2022-08-21T16:31:23.568Z,74.35
2022-08-21T16:33:58.099Z,73.54
2022-08-21T16:36:29.453Z,73.79
2022-08-21T16:39:02.864Z,74.35
2022-08-21T16:41:38.125Z,73.89
2022-08-21T16:44:09.788Z,74.38
2022-08-21T16:46:44.410Z,74.85
2022-08-21T16:49:15.394Z,74.47
2022-08-21T16:51:49.211Z,74.35
2022-08-21T16:54:20.422Z,74.74
2022-08-21T16:56:54.189Z,74.29
2022-08-21T16:59:26.048Z,74.62
2022-08-21T17:01:57.431Z,74.43
2022-08-21T17:04:30.952Z,74.33
2022-08-21T17:07:01.526Z,74.81
2022-08-21T17:09:31.898Z,74.88
2022-08-21T17:12:02.310Z,74.21
2022-08-21T17:14:32.684Z,74.53
2022-08-21T17:17:07.257Z,74.74
2022-08-21T17:19:38.553Z,74.50
2022-08-21T17:22:10.394Z,74.62
2022-08-21T17:24:41.197Z,74.84
2022-08-21T17:27:11.879Z,74.25
2022-08-21T17:29:43.382Z,74.40
2022-08-21T17:32:16.438Z,74.33
2022-08-21T17:34:48.824Z,74.44
2022-08-21T17:37:19.257Z,74.71
2022-08-21T17:39:50.185Z,74.86
2022-08-21T17:42:20.806Z,74.69
2022-08-21T17:44:51.082Z,74.79
2022-08-21T17:47:21.774Z,74.43
2022-08-21T17:49:52.024Z,75.10
2022-08-21T17:52:22.520Z,75.07
2022-08-21T17:54:52.652Z,75.17
2022-08-21T17:57:29.300Z,74.18
2022-08-21T17:59:59.970Z,74.76
2022-08-21T18:02:33.196Z,74.59
2022-08-21T18:05:03.632Z,74.79
2022-08-21T18:07:33.728Z,74.96
2022-08-21T18:10:07.547Z,74.68
2022-08-21T18:12:38.028Z,74.66
2022-08-21T18:15:09.232Z,74.86
2022-08-21T18:17:39.462Z,75.04
2022-08-21T18:20:10.548Z,75.22
2022-08-21T18:22:40.790Z,74.52
2022-08-21T18:25:11.095Z,75.20
2022-08-21T18:27:43.973Z,75.13
2022-08-21T18:30:17.714Z,75.14
2022-08-21T18:32:48.562Z,74.96
2022-08-21T18:35:19.453Z,75.07
2022-08-21T18:37:49.738Z,74.45
2022-08-21T18:40:19.920Z,75.91
2022-08-21T18:42:55.879Z,74.71
2022-08-21T18:45:26.971Z,74.78
2022-08-21T18:47:59.359Z,74.95
2022-08-21T18:50:31.433Z,75.22
2022-08-21T18:53:01.569Z,74.87
2022-08-21T18:55:39.972Z,75.22
2022-08-21T18:58:11.497Z,74.98
2022-08-21T19:00:48.452Z,74.51
2022-08-21T19:03:24.647Z,74.55
2022-08-21T19:05:56.243Z,74.89
2022-08-21T19:08:30.373Z,74.67
2022-08-21T19:11:03.869Z,75.10
2022-08-21T19:13:37.829Z,74.83
2022-08-21T19:16:09.740Z,75.11
2022-08-21T19:18:43.306Z,75.16
2022-08-21T19:21:14.065Z,75.15
2022-08-21T19:23:44.791Z,75.43
2022-08-21T19:26:14.853Z,75.58
2022-08-21T19:28:47.259Z,73.71
2022-08-21T19:31:23.752Z,75.72
2022-08-21T19:34:07.760Z,74.55
2022-08-21T19:36:38.778Z,75.64
2022-08-21T19:39:14.301Z,75.16
2022-08-21T19:41:51.099Z,74.92
2022-08-21T19:44:26.030Z,75.41
2022-08-21T19:46:59.149Z,75.51
2022-08-21T19:49:33.458Z,74.99
2022-08-21T19:52:12.957Z,75.88
2022-08-21T19:54:44.486Z,75.67
2022-08-21T19:57:15.372Z,75.28
2022-08-21T19:59:46.975Z,75.74
2022-08-21T20:02:21.271Z,75.48
2022-08-21T20:04:53.790Z,75.29
2022-08-21T20:10:15.781Z,75.39
2022-08-21T20:12:49.592Z,75.50
2022-08-21T20:15:23.284Z,75.29
2022-08-21T20:17:54.735Z,75.62
2022-08-21T20:20:24.953Z,75.41
2022-08-21T20:23:01.313Z,75.32
2022-08-21T20:25:42.063Z,75.54
2022-08-21T20:28:12.270Z,75.56
2022-08-21T20:30:46.826Z,75.17
2022-08-21T20:33:18.973Z,75.43
2022-08-21T20:35:51.265Z,75.45
2022-08-21T20:38:22.399Z,75.32
2022-08-21T20:40:54.786Z,75.55
2022-08-21T20:43:25.546Z,75.55
2022-08-21T20:45:58.529Z,75.43
2022-08-21T20:48:49.513Z,74.97
2022-08-21T20:51:32.017Z,74.56
2022-08-21T20:54:28.550Z,74.42
2022-08-21T20:57:22.928Z,74.92
2022-08-21T20:59:58.500Z,75.98
2022-08-21T21:02:31.451Z,76.02
2022-08-21T21:05:24.968Z,74.47
2022-08-21T21:08:07.247Z,75.10
2022-08-21T21:11:19.621Z,74.93
2022-08-21T21:14:02.015Z,75.81
2022-08-21T21:16:45.883Z,75.09
2022-08-21T21:19:37.339Z,74.73
2022-08-21T21:22:15.903Z,75.72
2022-08-21T21:25:03.091Z,74.81
2022-08-21T21:27:55.516Z,74.62
2022-08-21T21:30:25.996Z,75.88
2022-08-21T21:32:56.292Z,75.60
2022-08-21T21:35:36.483Z,75.34
2022-08-21T21:38:14.601Z,75.74
2022-08-21T21:40:47.786Z,76.93
2022-08-21T21:43:49.559Z,74.95
2022-08-21T21:46:31.404Z,74.33
2022-08-21T21:49:29.012Z,75.10
2022-08-21T21:52:21.661Z,74.97
2022-08-21T21:55:13.406Z,74.80
2022-08-21T21:58:36.857Z,74.78
2022-08-21T22:01:17.865Z,75.23
2022-08-21T22:03:52.267Z,76.23
2022-08-21T22:06:39.111Z,76.67
2022-08-21T22:09:20.263Z,76.26
2022-08-21T22:11:59.864Z,76.01
2022-08-21T22:14:41.730Z,75.30
2022-08-21T22:17:35.090Z,75.32
2022-08-21T22:20:17.938Z,75.30
2022-08-21T22:22:49.351Z,76.19
2022-08-21T22:25:26.260Z,75.84
2022-08-21T22:28:13.200Z,75.85
2022-08-21T22:30:53.764Z,77.32
2022-08-21T22:33:33.854Z,76.10
2022-08-21T22:36:20.986Z,75.66
2022-08-21T22:38:50.977Z,76.02
2022-08-21T22:44:24.894Z,75.60
2022-08-21T22:47:01.799Z,75.87
2022-08-21T22:49:50.986Z,75.02
2022-08-21T22:52:25.739Z,76.40
2022-08-21T22:55:01.779Z,76.16
2022-08-21T22:57:37.127Z,76.57
2022-08-21T23:00:14.818Z,75.31
2022-08-21T23:02:58.418Z,75.97
2022-08-21T23:05:31.364Z,75.86
2022-08-21T23:08:24.340Z,75.63
2022-08-21T23:11:01.415Z,74.87
2022-08-21T23:13:40.384Z,75.36
2022-08-21T23:16:34.380Z,75.24
2022-08-21T23:19:28.674Z,74.58
2022-08-21T23:22:15.778Z,75.63
2022-08-21T23:25:19.274Z,75.21
2022-08-21T23:28:03.854Z,75.99
2022-08-21T23:30:56.747Z,75.72
2022-08-21T23:33:26.623Z,76.44
2022-08-21T23:36:53.312Z,75.21
2022-08-21T23:39:32.443Z,75.56
2022-08-21T23:42:36.164Z,75.38
2022-08-21T23:45:19.465Z,75.41
2022-08-21T23:48:29.677Z,75.90
2022-08-21T23:51:25.046Z,75.42
2022-08-21T23:53:58.123Z,75.86
2022-08-21T23:56:34.452Z,75.86
2022-08-21T23:59:28.200Z,75.26
